Time;durP1;ratioP1;P1;durP2;ratioP2;P2;SDS_P1;SDS_P2;PMS_P1;PMS_P2;Temp;Humidity;BMP_temperature;BMP_pressure;BME280_temperature;BME280_humidity;BME280_pressure;Samples;Min_cycle;Max_cycle;Signal;HPM_P1;HPM_P2
2023/03/30 00:02:04;;;;;;;3.70;2.60;;;22.10;41.80;;;;;;4989849;28;20038;-52
2023/03/30 00:04:33;;;;;;;4.32;2.90;;;22.00;41.80;;;;;;4986236;28;20447;-54
2023/03/30 00:07:01;;;;;;;3.90;2.35;;;22.00;41.80;;;;;;4988354;28;20045;-54
2023/03/30 00:09:29;;;;;;;3.15;2.08;;;22.00;41.70;;;;;;4989115;28;20080;-56
2023/03/30 00:11:55;;;;;;;2.88;2.25;;;22.00;41.70;;;;;;4989000;28;20026;-54
2023/03/30 00:14:30;;;;;;;4.30;2.50;;;22.00;41.70;;;;;;4986902;28;20113;-55
2023/03/30 00:16:56;;;;;;;3.80;1.95;;;22.00;41.70;;;;;;4990287;28;20022;-53
2023/03/30 00:19:22;;;;;;;4.13;2.47;;;22.00;41.70;;;;;;4990636;28;20042;-56
2023/03/30 00:21:48;;;;;;;3.58;2.30;;;22.00;41.70;;;;;;4990260;28;20033;-56
2023/03/30 00:24:14;;;;;;;5.68;2.38;;;22.00;41.70;;;;;;4990999;28;20370;-51
2023/03/30 00:26:40;;;;;;;3.72;2.03;;;22.00;41.60;;;;;;4993010;28;20035;-55
2023/03/30 00:29:06;;;;;;;4.30;2.45;;;21.90;41.50;;;;;;4977677;28;20041;-56
2023/03/30 00:31:32;;;;;;;2.33;1.80;;;21.90;41.50;;;;;;4992934;28;20413;-58
2023/03/30 00:33:58;;;;;;;4.93;2.40;;;22.00;41.60;;;;;;4993666;28;20165;-56
2023/03/30 00:36:24;;;;;;;3.13;1.90;;;21.90;41.60;;;;;;4994989;28;20026;-53
2023/03/30 00:38:51;;;;;;;4.22;2.08;;;21.90;41.60;;;;;;4991946;28;20505;-57
2023/03/30 00:41:17;;;;;;;3.95;2.30;;;21.90;41.60;;;;;;4994164;28;20037;-54
2023/03/30 00:43:59;;;;;;;3.67;2.25;;;21.90;41.60;;;;;;4992262;28;20434;-56
2023/03/30 00:46:26;;;;;;;2.60;1.80;;;21.90;41.60;;;;;;4991035;28;20465;-55
2023/03/30 00:48:56;;;;;;;3.08;1.85;;;21.90;41.60;;;;;;4993369;28;20045;-56
2023/03/30 00:51:26;;;;;;;3.53;1.90;;;21.90;41.60;;;;;;4992210;28;20029;-53
2023/03/30 00:53:57;;;;;;;2.78;1.83;;;21.90;41.50;;;;;;4987677;28;20019;-54
2023/03/30 00:56:27;;;;;;;2.70;1.75;;;21.90;41.50;;;;;;4993057;28;20034;-56
2023/03/30 00:58:54;;;;;;;2.22;1.45;;;21.90;41.50;;;;;;4991903;28;20100;-57
2023/03/30 01:01:27;;;;;;;2.08;1.58;;;21.90;41.50;;;;;;4992567;28;20383;-55
2023/03/30 01:03:56;;;;;;;2.75;1.73;;;21.80;41.40;;;;;;4992393;28;20037;-57
2023/03/30 01:06:24;;;;;;;2.53;1.65;;;21.90;41.50;;;;;;4993754;28;20110;-56
2023/03/30 01:08:53;;;;;;;2.58;1.77;;;21.90;41.50;;;;;;4992442;28;20116;-54
2023/03/30 01:11:20;;;;;;;3.03;1.75;;;21.80;41.40;;;;;;4991883;28;20057;-53
2023/03/30 01:13:51;;;;;;;2.75;1.63;;;21.80;41.40;;;;;;4992773;28;20042;-55
2023/03/30 01:16:34;;;;;;;2.60;1.70;;;21.80;41.40;;;;;;4992972;28;20446;-53
2023/03/30 01:19:03;;;;;;;2.72;1.67;;;21.80;41.40;;;;;;4991735;28;20458;-54
2023/03/30 01:21:50;;;;;;;3.50;1.70;;;21.80;41.40;;;;;;4989524;28;20469;-58
2023/03/30 01:24:52;;;;;;;2.90;1.80;;;21.80;41.30;;;;;;4992385;28;20104;-58
2023/03/30 01:28:06;;;;;;;3.15;1.63;;;21.80;41.30;;;;;;4991982;28;20472;-57
2023/03/30 01:31:05;;;;;;;2.13;1.65;;;21.80;41.30;;;;;;4919956;28;20116;-57
2023/03/30 01:34:06;;;;;;;2.42;1.50;;;21.80;41.30;;;;;;4992327;28;20027;-55
2023/03/30 01:36:56;;;;;;;3.17;1.58;;;21.80;41.30;;;;;;4993026;28;20438;-53
2023/03/30 01:39:27;;;;;;;2.10;1.42;;;21.70;41.30;;;;;;4992296;28;20046;-51
2023/03/30 01:42:16;;;;;;;2.28;1.50;;;21.70;41.30;;;;;;4993262;28;20479;-56
2023/03/30 01:44:52;;;;;;;2.22;1.52;;;21.70;41.30;;;;;;4992086;28;20030;-57
2023/03/30 01:47:26;;;;;;;4.55;1.90;;;21.70;41.30;;;;;;4991104;28;20050;-55
2023/03/30 01:49:58;;;;;;;2.55;1.38;;;21.70;41.30;;;;;;4991827;28;20030;-54
2023/03/30 01:52:59;;;;;;;2.33;1.45;;;21.70;41.30;;;;;;4990393;28;20033;-56
2023/03/30 01:55:36;;;;;;;2.13;1.50;;;21.70;41.30;;;;;;4995977;28;20043;-52
2023/03/30 01:58:22;;;;;;;2.28;1.35;;;21.70;41.30;;;;;;4983009;28;20065;-54
2023/03/30 02:00:50;;;;;;;2.65;1.55;;;21.70;41.30;;;;;;4992245;28;20037;-56
2023/03/30 02:03:26;;;;;;;3.03;1.40;;;21.70;41.30;;;;;;4989436;28;20041;-54
2023/03/30 02:06:09;;;;;;;2.20;1.52;;;21.70;41.30;;;;;;4978661;28;20018;-51
2023/03/30 02:08:37;;;;;;;1.98;1.38;;;21.70;41.20;;;;;;4982318;28;20033;-55
2023/03/30 02:11:03;;;;;;;2.17;1.30;;;21.70;41.60;;;;;;4990838;28;20030;-56
2023/03/30 02:13:31;;;;;;;2.10;1.10;;;21.70;41.20;;;;;;4992119;28;20034;-55
2023/03/30 02:16:30;;;;;;;2.30;1.30;;;21.70;41.20;;;;;;4990883;28;20026;-55
2023/03/30 02:18:56;;;;;;;1.95;1.40;;;21.70;41.10;;;;;;4975055;28;20102;-56
2023/03/30 02:21:22;;;;;;;2.80;1.58;;;21.70;41.10;;;;;;4989502;28;20031;-54
2023/03/30 02:23:52;;;;;;;2.92;1.65;;;21.70;41.10;;;;;;4991387;28;20026;-53
2023/03/30 02:26:21;;;;;;;2.65;1.52;;;21.70;41.10;;;;;;4991290;28;20022;-54
2023/03/30 02:28:49;;;;;;;2.20;1.38;;;21.70;41.10;;;;;;4990194;28;20026;-52
2023/03/30 02:31:15;;;;;;;2.65;1.30;;;21.60;41.10;;;;;;4991252;28;20030;-56
2023/03/30 02:33:59;;;;;;;2.22;1.40;;;21.60;41.10;;;;;;4989673;28;20125;-55
2023/03/30 02:37:03;;;;;;;4.13;1.67;;;21.60;41.10;;;;;;4989690;28;20034;-56
2023/03/30 02:39:54;;;;;;;2.45;1.20;;;21.60;41.00;;;;;;4990336;28;20034;-57
2023/03/30 02:42:58;;;;;;;2.88;1.00;;;21.60;41.70;;;;;;4986857;28;20109;-58
2023/03/30 02:45:27;;;;;;;2.73;1.20;;;21.60;41.00;;;;;;5002121;28;20480;-50
2023/03/30 02:48:31;;;;;;;2.75;1.30;;;21.60;41.00;;;;;;4988488;28;20303;-54
2023/03/30 02:51:12;;;;;;;2.17;1.10;;;21.60;41.10;;;;;;4938276;28;20071;-53
2023/03/30 02:54:22;;;;;;;1.70;1.10;;;21.60;41.10;;;;;;4981272;28;20100;-57
2023/03/30 02:57:40;;;;;;;1.90;1.08;;;21.60;41.10;;;;;;4954966;28;20075;-55
2023/03/30 03:00:57;;;;;;;3.28;1.25;;;21.60;41.10;;;;;;4982743;28;20050;-56
2023/03/30 03:03:37;;;;;;;2.33;1.17;;;21.60;41.10;;;;;;4988643;28;20026;-58
2023/03/30 03:06:04;;;;;;;2.95;1.30;;;21.50;41.10;;;;;;4989427;28;20064;-54
2023/03/30 03:08:38;;;;;;;2.47;1.23;;;21.60;41.80;;;;;;4990015;28;20481;-56
2023/03/30 03:11:06;;;;;;;1.92;1.00;;;21.50;41.10;;;;;;4989862;28;20073;-54
2023/03/30 03:13:36;;;;;;;1.65;1.02;;;21.50;41.20;;;;;;4990053;28;20054;-58
2023/03/30 03:16:09;;;;;;;1.67;0.80;;;21.50;41.20;;;;;;4976832;28;20474;-58
2023/03/30 03:18:38;;;;;;;2.05;0.82;;;21.50;41.20;;;;;;4988647;28;20045;-56
2023/03/30 03:21:06;;;;;;;2.47;0.80;;;21.50;41.20;;;;;;4978229;28;20109;-58
2023/03/30 03:23:33;;;;;;;1.73;0.90;;;21.50;41.30;;;;;;4991015;28;20492;-59
2023/03/30 03:25:59;;;;;;;1.65;0.90;;;21.50;41.30;;;;;;4990656;28;20042;-58
2023/03/30 03:28:28;;;;;;;1.63;0.90;;;21.50;41.30;;;;;;4990503;28;20288;-56
2023/03/30 03:31:01;;;;;;;2.45;0.90;;;21.50;41.30;;;;;;4987109;28;20354;-55
2023/03/30 03:33:30;;;;;;;1.80;1.00;;;21.50;41.30;;;;;;4990331;28;20030;-58
2023/03/30 03:36:16;;;;;;;3.40;1.02;;;21.50;41.30;;;;;;4987098;28;20048;-59
2023/03/30 03:38:51;;;;;;;1.75;0.90;;;21.50;41.30;;;;;;5005410;28;20504;-58
2023/03/30 03:41:19;;;;;;;1.88;1.13;;;21.50;41.30;;;;;;4990014;28;20045;-57
2023/03/30 03:43:45;;;;;;;2.15;1.00;;;21.50;41.30;;;;;;4989318;28;20033;-54
2023/03/30 03:46:13;;;;;;;1.90;1.10;;;21.50;41.30;;;;;;4985044;28;20038;-57
2023/03/30 03:48:40;;;;;;;1.60;0.85;;;21.50;41.40;;;;;;4990169;28;20053;-57
2023/03/30 03:51:06;;;;;;;5.07;0.90;;;21.50;41.40;;;;;;4988772;28;20473;-55
2023/03/30 03:53:34;;;;;;;1.73;1.00;;;21.50;41.40;;;;;;4988568;28;20030;-54
2023/03/30 03:56:04;;;;;;;2.10;1.00;;;21.50;41.40;;;;;;4988253;28;20042;-57
2023/03/30 03:58:30;;;;;;;1.52;0.90;;;21.50;41.40;;;;;;4989399;28;20089;-52
2023/03/30 04:01:01;;;;;;;1.45;0.73;;;21.50;41.40;;;;;;4989802;28;20117;-54
2023/03/30 04:03:27;;;;;;;0.90;0.77;;;21.50;41.50;;;;;;4989996;28;20030;-57
2023/03/30 04:05:53;;;;;;;1.70;0.95;;;21.50;41.40;;;;;;4984970;28;20045;-58
2023/03/30 04:08:20;;;;;;;2.40;0.88;;;21.50;41.50;;;;;;4987647;28;20026;-52
2023/03/30 04:10:48;;;;;;;1.40;0.90;;;21.50;41.50;;;;;;4990222;28;20026;-53
2023/03/30 04:13:16;;;;;;;2.17;0.98;;;21.50;41.60;;;;;;4989659;28;20140;-54
2023/03/30 04:15:42;;;;;;;2.45;0.82;;;21.50;41.60;;;;;;4989849;28;20078;-57
2023/03/30 04:18:33;;;;;;;1.77;0.70;;;21.50;41.70;;;;;;4988202;28;20045;-54
2023/03/30 04:21:28;;;;;;;1.73;0.80;;;21.40;41.70;;;;;;4989116;28;20173;-58
2023/03/30 04:24:16;;;;;;;2.20;0.98;;;21.50;41.80;;;;;;4988520;28;20043;-57
2023/03/30 04:27:01;;;;;;;1.00;0.57;;;21.40;41.80;;;;;;4989585;28;20054;-59
2023/03/30 04:29:51;;;;;;;1.23;0.68;;;21.40;41.90;;;;;;4983748;28;20045;-55
2023/03/30 04:32:37;;;;;;;2.13;0.90;;;21.40;42.00;;;;;;4988428;28;20051;-57
2023/03/30 04:35:21;;;;;;;1.50;0.70;;;21.40;42.00;;;;;;4989521;28;20041;-58
2023/03/30 04:38:08;;;;;;;1.52;0.60;;;21.40;42.10;;;;;;4989423;28;20057;-57
2023/03/30 04:41:04;;;;;;;1.63;0.80;;;21.40;42.20;;;;;;4968522;28;20050;-55
2023/03/30 04:43:50;;;;;;;1.20;0.60;;;21.40;42.30;;;;;;4970606;28;20458;-54
2023/03/30 04:46:51;;;;;;;1.20;0.68;;;21.40;42.30;;;;;;4956055;28;20045;-54
2023/03/30 04:49:42;;;;;;;1.42;0.60;;;21.40;42.40;;;;;;4988045;28;20053;-57
2023/03/30 04:52:27;;;;;;;1.42;0.70;;;21.40;42.50;;;;;;4989921;28;20132;-55
2023/03/30 04:55:15;;;;;;;1.45;0.57;;;21.40;42.50;;;;;;4989052;28;20073;-55
2023/03/30 04:58:13;;;;;;;1.25;0.50;;;21.40;42.60;;;;;;4985515;28;20053;-56
2023/03/30 05:01:02;;;;;;;2.00;0.82;;;21.40;42.70;;;;;;4983402;28;20042;-56
2023/03/30 05:03:47;;;;;;;1.95;0.63;;;21.40;42.80;;;;;;4989778;28;20189;-53
2023/03/30 05:06:26;;;;;;;1.58;0.70;;;21.30;42.80;;;;;;4988831;28;20034;-55
2023/03/30 05:09:10;;;;;;;1.15;0.50;;;21.40;42.90;;;;;;4987741;28;20031;-58
2023/03/30 05:12:06;;;;;;;1.38;0.80;;;21.30;42.90;;;;;;4948769;28;20062;-54
2023/03/30 05:14:41;;;;;;;1.02;0.65;;;21.40;43.10;;;;;;4988330;28;20658;-56
2023/03/30 05:17:40;;;;;;;1.50;0.60;;;21.30;43.10;;;;;;4955091;28;20116;-52
2023/03/30 05:20:24;;;;;;;1.85;0.57;;;21.30;43.20;;;;;;4990296;28;20922;-56
2023/03/30 05:22:56;;;;;;;1.88;1.10;;;21.30;43.30;;;;;;4987176;28;20054;-57
2023/03/30 05:25:47;;;;;;;2.30;1.00;;;21.30;43.30;;;;;;4969536;28;20066;-55
2023/03/30 05:28:32;;;;;;;3.58;1.23;;;21.30;43.40;;;;;;4991610;28;22000;-57
2023/03/30 05:31:18;;;;;;;0.88;0.70;;;21.30;43.50;;;;;;4989686;28;20076;-56
2023/03/30 05:34:10;;;;;;;4.28;1.17;;;21.30;43.60;;;;;;4987984;28;20489;-58
2023/03/30 05:37:08;;;;;;;2.83;1.17;;;21.30;43.70;;;;;;4966849;28;20101;-58
2023/03/30 05:39:35;;;;;;;3.45;1.10;;;21.30;43.70;;;;;;4992223;28;20042;-57
2023/03/30 05:42:21;;;;;;;2.58;1.20;;;21.30;43.80;;;;;;4990243;28;20402;-57
2023/03/30 05:45:04;;;;;;;3.35;1.48;;;21.30;43.80;;;;;;4989366;28;20125;-57
2023/03/30 05:47:56;;;;;;;2.95;1.80;;;21.30;43.90;;;;;;4964523;28;20473;-53
2023/03/30 05:50:35;;;;;;;3.47;1.80;;;21.30;44.00;;;;;;4993035;28;20033;-56
2023/03/30 05:53:03;;;;;;;2.63;1.85;;;21.20;44.00;;;;;;4993162;28;20037;-57
2023/03/30 05:55:55;;;;;;;3.80;2.60;;;21.30;44.10;;;;;;4966736;28;20038;-56
2023/03/30 05:58:40;;;;;;;4.78;3.08;;;21.30;44.10;;;;;;4989883;28;20099;-58
2023/03/30 06:01:32;;;;;;;4.93;3.67;;;21.30;44.20;;;;;;4987368;28;20509;-56
2023/03/30 06:03:58;;;;;;;5.72;3.53;;;21.30;44.30;;;;;;4978645;28;20856;-53
2023/03/30 06:06:24;;;;;;;5.95;4.32;;;21.30;44.50;;;;;;4989277;28;20058;-57
2023/03/30 06:08:52;;;;;;;5.82;4.32;;;21.30;44.50;;;;;;4987600;28;20037;-58
2023/03/30 06:11:22;;;;;;;6.45;4.57;;;21.30;44.60;;;;;;4986558;28;20034;-57
2023/03/30 06:13:56;;;;;;;8.77;5.78;;;21.30;44.60;;;;;;4987850;28;20049;-57
2023/03/30 06:16:21;;;;;;;6.97;5.35;;;21.30;44.70;;;;;;4985989;28;20442;-56
2023/03/30 06:18:48;;;;;;;9.50;6.28;;;21.30;44.80;;;;;;4989874;28;20061;-56
2023/03/30 06:21:14;;;;;;;8.32;6.30;;;21.30;44.90;;;;;;4992456;28;20030;-58
2023/03/30 06:23:56;;;;;;;8.40;6.40;;;21.30;44.90;;;;;;4989688;28;20022;-54
2023/03/30 06:26:24;;;;;;;9.32;6.50;;;21.30;45.00;;;;;;4989790;28;20030;-52
2023/03/30 06:28:51;;;;;;;8.85;6.70;;;21.30;45.00;;;;;;4988277;28;20027;-57
2023/03/30 06:31:16;;;;;;;8.80;6.35;;;21.30;45.10;;;;;;4989656;28;20382;-51
2023/03/30 06:33:44;;;;;;;8.52;6.70;;;21.30;45.20;;;;;;4991646;28;20157;-57
2023/03/30 06:36:12;;;;;;;9.65;6.80;;;21.30;45.20;;;;;;4993482;28;20030;-55
2023/03/30 06:38:39;;;;;;;9.73;6.82;;;21.30;45.30;;;;;;4993254;28;20454;-55
2023/03/30 06:41:08;;;;;;;8.63;6.93;;;21.30;45.30;;;;;;4992438;28;20062;-52
2023/03/30 06:43:37;;;;;;;8.48;6.95;;;21.30;45.30;;;;;;4982775;28;20080;-56
2023/03/30 06:46:12;;;;;;;8.07;6.63;;;21.30;45.40;;;;;;4991032;28;20453;-57
2023/03/30 06:48:42;;;;;;;9.48;6.40;;;21.30;45.30;;;;;;4994373;28;20125;-57
2023/03/30 06:51:27;;;;;;;7.78;5.78;;;21.40;45.40;;;;;;4994903;28;20120;-56
2023/03/30 06:53:55;;;;;;;8.88;6.60;;;21.40;45.40;;;;;;4993160;28;20446;-59
2023/03/30 06:56:21;;;;;;;9.13;6.10;;;21.40;45.30;;;;;;4974509;28;20027;-57
2023/03/30 06:59:04;;;;;;;8.07;6.00;;;21.40;45.30;;;;;;4991576;28;20065;-56
2023/03/30 07:01:32;;;;;;;6.97;5.38;;;21.40;45.40;;;;;;4993659;28;20018;-58
2023/03/30 07:04:27;;;;;;;8.18;6.10;;;21.40;45.40;;;;;;4979514;28;20519;-57
2023/03/30 07:07:22;;;;;;;;;;;21.40;45.30;;;;;;4992819;28;20084;-53
2023/03/30 07:09:48;;;;;;;7.28;5.80;;;21.40;45.30;;;;;;4992632;28;20253;-56
2023/03/30 07:12:14;;;;;;;8.40;5.93;;;21.40;45.30;;;;;;4990000;28;20030;-56
2023/03/30 07:14:40;;;;;;;6.97;5.55;;;21.50;45.30;;;;;;4990811;28;20126;-58
2023/03/30 07:17:07;;;;;;;8.95;6.03;;;21.50;45.20;;;;;;4987765;28;20045;-55
2023/03/30 07:19:33;;;;;;;8.07;5.82;;;21.50;45.10;;;;;;4989117;28;20033;-56
2023/03/30 07:21:59;;;;;;;7.38;5.78;;;21.50;45.00;;;;;;4993143;28;20030;-56
2023/03/30 07:24:30;;;;;;;7.72;5.68;;;21.50;44.90;;;;;;4963921;28;20047;-57
2023/03/30 07:26:56;;;;;;;7.30;6.05;;;21.50;44.90;;;;;;4990677;28;20026;-55
2023/03/30 07:29:22;;;;;;;9.55;6.35;;;21.50;44.80;;;;;;4990426;28;20405;-57
2023/03/30 07:31:55;;;;;;;8.68;6.55;;;21.60;44.80;;;;;;4992352;28;20034;-55
2023/03/30 07:34:21;;;;;;;8.32;5.88;;;21.60;44.70;;;;;;4989078;28;20110;-55
2023/03/30 07:36:52;;;;;;;8.30;7.05;;;21.60;44.70;;;;;;4993020;28;20438;-53
2023/03/30 07:39:18;;;;;;;10.18;6.60;;;21.60;44.70;;;;;;4992994;28;20045;-56
2023/03/30 07:41:46;;;;;;;8.15;6.55;;;21.70;44.70;;;;;;4976977;28;20026;-56
2023/03/30 07:44:13;;;;;;;9.48;6.95;;;21.70;44.70;;;;;;4992840;28;20030;-57
2023/03/30 07:46:39;;;;;;;8.52;6.65;;;21.70;44.70;;;;;;4991770;28;20022;-56
2023/03/30 07:49:07;;;;;;;9.45;6.63;;;21.70;44.70;;;;;;4992372;28;20349;-57
2023/03/30 07:51:34;;;;;;;7.75;6.63;;;21.70;44.70;;;;;;4990980;28;20026;-56
2023/03/30 07:54:09;;;;;;;8.40;7.15;;;21.80;44.70;;;;;;4992369;28;20062;-53
2023/03/30 07:56:53;;;;;;;9.75;7.82;;;21.80;44.60;;;;;;4993659;28;20045;-54
2023/03/30 07:59:22;;;;;;;9.60;7.35;;;21.80;44.60;;;;;;4990967;28;20426;-54
2023/03/30 08:01:50;;;;;;;9.20;7.75;;;21.80;44.50;;;;;;4992333;28;20037;-54
2023/03/30 08:04:40;;;;;;;10.63;8.50;;;21.80;44.50;;;;;;4982568;28;20023;-57
2023/03/30 08:07:07;;;;;;;9.98;7.70;;;21.80;44.40;;;;;;4991905;28;20030;-55
2023/03/30 08:09:34;;;;;;;11.20;8.48;;;21.80;44.30;;;;;;4990999;28;20022;-59
2023/03/30 08:12:00;;;;;;;11.65;8.82;;;21.80;44.20;;;;;;4983782;28;20100;-57
2023/03/30 08:14:26;;;;;;;10.27;8.82;;;21.80;44.20;;;;;;4990538;28;20046;-56
2023/03/30 08:16:53;;;;;;;12.07;8.38;;;21.80;44.00;;;;;;4993663;28;20033;-55
2023/03/30 08:19:20;;;;;;;11.63;8.90;;;21.80;44.00;;;;;;4991235;28;20038;-58
2023/03/30 08:21:46;;;;;;;11.05;8.65;;;21.80;43.90;;;;;;4991902;28;20121;-54
2023/03/30 08:24:12;;;;;;;12.07;8.85;;;21.80;43.80;;;;;;4993825;28;20404;-58
2023/03/30 08:26:38;;;;;;;11.65;9.25;;;21.90;43.80;;;;;;4992064;28;20030;-52
2023/03/30 08:29:05;;;;;;;11.48;8.77;;;21.90;43.80;;;;;;4992307;28;20107;-55
2023/03/30 08:31:32;;;;;;;10.90;9.00;;;21.90;43.70;;;;;;4992571;28;20164;-55
2023/03/30 08:33:58;;;;;;;9.95;8.70;;;21.90;43.60;;;;;;4992900;28;20335;-55
2023/03/30 08:36:24;;;;;;;12.00;9.45;;;21.90;43.60;;;;;;4992901;28;20029;-55
2023/03/30 08:38:52;;;;;;;12.57;9.82;;;21.90;43.50;;;;;;4993097;28;20038;-56
2023/03/30 08:41:27;;;;;;;11.88;9.23;;;21.90;43.40;;;;;;4992886;28;20026;-57
2023/03/30 08:44:14;;;;;;;14.43;10.70;;;21.90;43.40;;;;;;4992293;28;20027;-57
2023/03/30 08:46:41;;;;;;;11.82;9.77;;;22.00;43.40;;;;;;4994003;28;20038;-56
2023/03/30 08:49:16;;;;;;;13.43;10.68;;;22.00;43.30;;;;;;4994664;28;20030;-56
2023/03/30 08:51:43;;;;;;;13.98;11.10;;;22.00;43.30;;;;;;4996155;28;20018;-54
2023/03/30 08:54:15;;;;;;;12.98;10.15;;;22.00;43.20;;;;;;4989622;28;20026;-57
2023/03/30 08:56:49;;;;;;;13.15;9.90;;;22.00;43.20;;;;;;5001844;28;20078;-59
2023/03/30 08:59:15;;;;;;;14.30;11.23;;;22.00;43.20;;;;;;4995473;28;20092;-55
2023/03/30 09:01:59;;;;;;;13.77;10.73;;;22.00;43.10;;;;;;4995437;28;20030;-54
2023/03/30 09:04:55;;;;;;;16.38;12.43;;;22.00;43.10;;;;;;4993744;28;20042;-52
2023/03/30 09:08:02;;;;;;;15.80;11.85;;;22.00;43.10;;;;;;4993653;28;20049;-56
2023/03/30 09:10:33;;;;;;;13.27;10.63;;;22.00;43.10;;;;;;4984199;28;20050;-52
2023/03/30 09:13:03;;;;;;;13.85;11.07;;;22.00;43.10;;;;;;4991314;28;20057;-55
2023/03/30 09:15:37;;;;;;;16.98;12.25;;;22.00;43.00;;;;;;4996693;28;20037;-56
2023/03/30 09:18:23;;;;;;;14.57;11.18;;;22.00;43.00;;;;;;4992683;28;20034;-55
2023/03/30 09:20:56;;;;;;;13.05;10.90;;;22.00;43.00;;;;;;4990856;28;20060;-54
2023/03/30 09:23:30;;;;;;;15.30;11.73;;;22.00;43.00;;;;;;4994332;28;20035;-53
2023/03/30 09:26:05;;;;;;;14.40;12.20;;;22.00;42.90;;;;;;4993207;28;20041;-52
2023/03/30 09:29:05;;;;;;;15.25;12.02;;;22.00;43.00;;;;;;4994044;28;20056;-56
2023/03/30 09:31:50;;;;;;;13.10;11.07;;;22.00;43.10;;;;;;4993656;28;20033;-58
2023/03/30 09:34:27;;;;;;;15.23;11.23;;;22.00;43.30;;;;;;4993652;28;20026;-59
2023/03/30 09:37:02;;;;;;;12.63;10.27;;;22.10;43.50;;;;;;4993291;28;20034;-59
2023/03/30 09:39:32;;;;;;;11.93;9.15;;;22.10;43.60;;;;;;4990837;28;20085;-57
2023/03/30 09:42:26;;;;;;;14.73;10.50;;;22.10;43.80;;;;;;4994201;28;20023;-51
2023/03/30 09:45:04;;;;;;;12.77;9.95;;;22.10;43.90;;;;;;4995552;28;20094;-55
2023/03/30 09:47:35;;;;;;;13.68;10.43;;;22.10;43.90;;;;;;4995079;28;20111;-55
2023/03/30 09:50:06;;;;;;;13.30;10.35;;;22.10;44.00;;;;;;4994354;28;20045;-57
2023/03/30 09:52:39;;;;;;;13.38;10.48;;;22.10;44.00;;;;;;4995476;28;20354;-50
2023/03/30 09:55:35;;;;;;;14.50;10.73;;;22.10;44.10;;;;;;4994338;28;20391;-50
2023/03/30 09:58:16;;;;;;;15.77;11.20;;;22.20;44.10;;;;;;4985783;28;20362;-55
2023/03/30 10:00:43;;;;;;;14.68;11.13;;;22.20;44.00;;;;;;4991218;28;20471;-52
2023/03/30 10:03:20;;;;;;;13.57;10.98;;;22.20;43.90;;;;;;4994244;28;20046;-54
2023/03/30 10:06:20;;;;;;;14.77;11.98;;;22.10;43.70;;;;;;4994172;28;20362;-53
2023/03/30 10:08:50;;;;;;;14.10;11.05;;;22.20;43.70;;;;;;4991723;28;20037;-52
2023/03/30 10:11:37;;;;;;;14.65;11.20;;;22.20;43.60;;;;;;4993303;28;20034;-52
2023/03/30 10:14:04;;;;;;;17.70;12.77;;;22.20;43.50;;;;;;4994923;28;20096;-54
2023/03/30 10:16:31;;;;;;;16.63;11.88;;;22.20;43.40;;;;;;4995152;28;20042;-53
2023/03/30 10:19:06;;;;;;;15.95;12.55;;;22.20;43.40;;;;;;4991254;28;20049;-49
2023/03/30 10:21:37;;;;;;;;;;;22.20;43.30;;;;;;4995323;28;20038;-53
2023/03/30 10:24:17;;;;;;;16.33;12.32;;;22.20;43.30;;;;;;4994719;28;20356;-50
2023/03/30 10:26:49;;;;;;;15.90;11.82;;;22.20;43.10;;;;;;5002775;28;20025;-54
2023/03/30 10:29:22;;;;;;;14.88;12.10;;;22.20;43.00;;;;;;4995707;28;20115;-54
2023/03/30 10:31:55;;;;;;;15.60;12.48;;;22.20;42.90;;;;;;4994224;28;20088;-51
2023/03/30 10:34:35;;;;;;;16.85;12.63;;;22.20;42.80;;;;;;4995837;28;20109;-50
2023/03/30 10:37:15;;;;;;;16.88;12.57;;;22.20;42.70;;;;;;4994803;28;20105;-54
2023/03/30 10:39:45;;;;;;;18.67;12.82;;;22.20;42.70;;;;;;4993902;28;20610;-53
2023/03/30 10:42:16;;;;;;;14.10;11.38;;;22.20;42.60;;;;;;4992886;28;20030;-54
2023/03/30 10:44:54;;;;;;;15.90;12.02;;;22.20;42.50;;;;;;4993260;28;20018;-52
2023/03/30 10:47:26;;;;;;;16.30;11.82;;;22.20;43.10;;;;;;4992621;28;20100;-53
2023/03/30 10:50:13;;;;;;;14.95;11.52;;;22.20;42.40;;;;;;4994476;28;20030;-50
2023/03/30 10:52:41;;;;;;;14.52;11.95;;;22.20;42.40;;;;;;4992489;28;20042;-52
2023/03/30 10:55:17;;;;;;;19.63;12.23;;;22.20;42.30;;;;;;4995875;28;20177;-51
2023/03/30 10:58:25;;;;;;;20.38;12.00;;;22.30;42.40;;;;;;4993064;28;20461;-52
2023/03/30 11:01:11;;;;;;;16.92;12.07;;;22.30;42.30;;;;;;4992587;28;20068;-51
2023/03/30 11:03:41;;;;;;;16.95;11.65;;;22.30;42.30;;;;;;4994100;28;20031;-48
2023/03/30 11:06:25;;;;;;;14.63;11.75;;;22.30;42.30;;;;;;4995034;28;20116;-52
2023/03/30 11:08:53;;;;;;;14.57;11.55;;;22.30;42.20;;;;;;4993132;28;20469;-48
2023/03/30 11:11:21;;;;;;;14.25;10.63;;;22.30;42.10;;;;;;4994732;28;20038;-53
2023/03/30 11:14:00;;;;;;;14.02;10.13;;;22.30;42.20;;;;;;4994018;28;20045;-52
2023/03/30 11:16:49;;;;;;;13.50;10.00;;;22.30;42.10;;;;;;4995139;28;20315;-54
2023/03/30 11:19:37;;;;;;;14.70;10.95;;;22.30;42.00;;;;;;4994097;28;20061;-53
2023/03/30 11:22:40;;;;;;;14.25;10.75;;;22.30;42.00;;;;;;4995345;28;20036;-53
2023/03/30 11:25:20;;;;;;;17.33;11.60;;;22.30;42.00;;;;;;4996074;28;20092;-50
2023/03/30 11:28:13;;;;;;;13.85;10.50;;;22.30;42.00;;;;;;4992789;28;20030;-52
2023/03/30 11:30:40;;;;;;;15.02;10.55;;;22.30;42.00;;;;;;4963443;28;20088;-50
2023/03/30 11:33:45;;;;;;;16.05;10.32;;;22.30;41.90;;;;;;4994207;28;20417;-53
2023/03/30 11:36:38;;;;;;;16.13;11.02;;;22.30;42.00;;;;;;4995226;28;20477;-53
2023/03/30 11:39:14;;;;;;;14.57;10.43;;;22.30;42.00;;;;;;4993719;28;20034;-53
2023/03/30 11:41:46;;;;;;;14.35;10.88;;;22.30;41.90;;;;;;4996209;28;20038;-48
2023/03/30 11:44:13;;;;;;;15.80;11.52;;;22.30;41.90;;;;;;4994013;28;20048;-53
2023/03/30 11:47:00;;;;;;;14.20;10.60;;;22.30;41.80;;;;;;4995239;28;20501;-51
2023/03/30 11:49:51;;;;;;;16.05;11.13;;;22.30;41.70;;;;;;4995239;28;20034;-52
2023/03/30 11:52:47;;;;;;;16.38;10.75;;;22.30;41.70;;;;;;4995259;28;20038;-53
2023/03/30 11:56:00;;;;;;;14.10;11.63;;;22.30;41.60;;;;;;4995175;28;20093;-52
2023/03/30 11:58:34;;;;;;;18.63;11.88;;;22.30;41.60;;;;;;4943074;28;20419;-56
2023/03/30 12:01:20;;;;;;;16.02;12.20;;;22.30;41.60;;;;;;4976145;28;20122;-54
2023/03/30 12:03:53;;;;;;;17.88;12.02;;;22.40;41.50;;;;;;4991003;28;20106;-49
2023/03/30 12:06:32;;;;;;;14.85;11.38;;;22.30;41.40;;;;;;4995508;28;20026;-53
2023/03/30 12:08:57;;;;;;;15.05;11.65;;;22.30;41.30;;;;;;4981152;28;20034;-55
2023/03/30 12:11:36;;;;;;;17.35;11.65;;;22.30;41.30;;;;;;4975984;28;20027;-53
2023/03/30 12:14:04;;;;;;;15.40;11.10;;;22.40;41.20;;;;;;4986540;28;20043;-54
2023/03/30 12:16:41;;;;;;;14.30;10.55;;;22.40;41.20;;;;;;4990685;28;20038;-53
2023/03/30 12:19:24;;;;;;;14.80;10.82;;;22.40;41.10;;;;;;4987052;28;20038;-50
2023/03/30 12:22:25;;;;;;;14.32;10.93;;;22.40;41.10;;;;;;4999797;28;20026;-55
2023/03/30 12:25:00;;;;;;;14.13;11.02;;;22.40;40.90;;;;;;5001700;28;20030;-54
2023/03/30 12:27:27;;;;;;;16.08;11.50;;;22.40;40.80;;;;;;5001123;28;20052;-53
2023/03/30 12:30:09;;;;;;;15.10;10.82;;;22.40;40.80;;;;;;5002016;28;20088;-52
2023/03/30 12:32:35;;;;;;;15.70;10.98;;;22.40;40.70;;;;;;5001716;28;20030;-52
2023/03/30 12:35:39;;;;;;;15.02;11.35;;;22.40;40.70;;;;;;5001423;28;20038;-51
2023/03/30 12:38:05;;;;;;;14.45;11.35;;;22.40;40.60;;;;;;5000978;28;20462;-53
2023/03/30 12:40:32;;;;;;;15.20;11.10;;;22.40;40.60;;;;;;5001670;28;20061;-52
2023/03/30 12:43:27;;;;;;;14.38;11.65;;;22.40;40.60;;;;;;5002181;28;20062;-49
2023/03/30 12:46:04;;;;;;;15.10;10.88;;;22.40;40.50;;;;;;5000937;28;20109;-55
2023/03/30 12:48:59;;;;;;;14.05;11.43;;;22.50;40.50;;;;;;5001558;28;20045;-51
2023/03/30 12:51:41;;;;;;;14.73;11.75;;;22.40;40.40;;;;;;5001900;28;20061;-54
2023/03/30 12:54:38;;;;;;;15.38;11.02;;;22.40;40.40;;;;;;4999822;28;20037;-50
2023/03/30 12:57:21;;;;;;;16.27;11.93;;;22.50;40.40;;;;;;5001270;28;20454;-52
2023/03/30 13:00:28;;;;;;;15.02;11.98;;;22.50;40.40;;;;;;4992626;28;20050;-53
2023/03/30 13:03:00;;;;;;;15.35;12.30;;;22.50;40.30;;;;;;4956073;28;20105;-54
2023/03/30 13:05:33;;;;;;;17.05;12.48;;;22.50;40.30;;;;;;4981727;28;20485;-52
2023/03/30 13:08:20;;;;;;;17.63;12.45;;;22.50;40.30;;;;;;4985118;28;20044;-52
2023/03/30 13:10:46;;;;;;;15.32;11.68;;;22.50;40.30;;;;;;5000187;28;20034;-51
2023/03/30 13:13:54;;;;;;;15.95;12.00;;;22.50;40.30;;;;;;5000114;28;20046;-52
2023/03/30 13:16:51;;;;;;;14.65;11.73;;;22.50;40.20;;;;;;4999639;28;20121;-52
2023/03/30 13:19:26;;;;;;;15.80;11.77;;;22.50;40.20;;;;;;4984256;28;20125;-55
2023/03/30 13:22:10;;;;;;;14.15;11.50;;;22.50;40.10;;;;;;4981918;28;20031;-52
2023/03/30 13:25:05;;;;;;;18.08;12.95;;;22.50;40.10;;;;;;4981704;28;20037;-47
2023/03/30 13:27:31;;;;;;;;;;;22.50;40.10;;;;;;4980340;28;20050;-52
2023/03/30 13:30:06;;;;;;;17.25;13.48;;;22.50;40.10;;;;;;4982135;28;20318;-51
2023/03/30 13:33:03;;;;;;;14.73;12.10;;;22.50;40.10;;;;;;4982619;28;20034;-52